Heizer, Kansas
Current Conditions -  °F | °C
As of 6:55 PM on Wednesday 22 Oct 2014 (Local Time) from KGBD Reporting Station
Broken Clouds Broken Clouds  
Wind Chill: 64°   Ceiling: 11000
Heat Index: 64°   Visibility: 10mi
Dew Point: 55°   Wind: 17mph
Humidity: 73%   Direction: 180°S
Pressure: 30.04"   Gusts: NA
Location:  38.3903°N, 98.8296°W
Report Text: KGBD 222355Z AUTO 18015KT 10SM BKN110 18/13 A3004 RMK AO1 10260 20180 402600130 52007
Loading
Personal Weather Stations






























Interactive Weather Map
Tropical Storm Tracking
New forecast layout! Learn more

10-Day Weather Forecast

Advertisements
Track Severe Weather on mobile